This is the latest recevied weather packets stored in our database for station/object DL1VED. If no packets are shown the sender has not sent any weather packets the latest 10 day(s).
| Time | Temp. | Humidity | Pressure | Rain* | Wind** | Luminosity | Snow |
|---|---|---|---|---|---|---|---|
| 1777895049 | 17.78° C | 60% | 1013.7 hPa | 0 mm | - | - | - |
| 1777894149 | 17.78° C | 60% | 1013.7 hPa | 0 mm | - | - | - |
| 1777893249 | 18.33° C | 59% | 1013.5 hPa | 0 mm | - | - | - |
| 1777892349 | 18.33° C | 58% | 1013.5 hPa | 0 mm | - | - | - |
| 1777891449 | 18.89° C | 55% | 1013.5 hPa | 0 mm | - | - | - |
| 1777890549 | 19.44° C | 54% | 1013.5 hPa | 0 mm | - | - | - |
| 1777889649 | 20° C | 52% | 1013.5 hPa | 0 mm | - | - | - |
| 1777888749 | 19.44° C | 53% | 1013.5 hPa | 0 mm | - | - | - |
| 1777887849 | 19.44° C | 54% | 1013.5 hPa | 0 mm | - | - | - |
| 1777886949 | 18.89° C | 56% | 1013.6 hPa | 0 mm | - | - | - |
| 1777886049 | 18.89° C | 55% | 1013.6 hPa | 0 mm | - | - | - |
| 1777885149 | 18.89° C | 56% | 1013.6 hPa | 0 mm | - | - | - |
| 1777884249 | 18.33° C | 56% | 1013.6 hPa | 0 mm | - | - | - |
| 1777883349 | 17.78° C | 55% | 1013.6 hPa | 0 mm | - | - | - |
| 1777882449 | 17.22° C | 57% | 1013.6 hPa | 0 mm | - | - | - |
| 1777881549 | 16.11° C | 60% | 1013.6 hPa | 0 mm | - | - | - |
| 1777880649 | 15.56° C | 61% | 1013.6 hPa | 0 mm | - | - | - |
| 1777879749 | 15.56° C | 61% | 1013.5 hPa | 0 mm | - | - | - |
| 1777878849 | 15° C | 62% | 1013.3 hPa | 0 mm | - | - | - |
| 1777877949 | 15° C | 64% | 1013.3 hPa | 0 mm | - | - | - |
| 1777877049 | 14.44° C | 67% | 1013.2 hPa | 0 mm | - | - | - |
| 1777876149 | 13.89° C | 70% | 1013.2 hPa | 0 mm | - | - | - |
| 1777875249 | 12.78° C | 74% | 1013.3 hPa | 0 mm | - | - | - |
| 1777874349 | 12.22° C | 77% | 1013.2 hPa | 0 mm | - | - | - |
| 1777873449 | 11.11° C | 80% | 1013.2 hPa | 0 mm | - | - | - |
* Rain latest hour (hover to see other rain measurements)
** Current wind speed in m/s (hover to see current wind gust speed)